createdAt,value
2023-03-01T00:04:05.877Z,1013.28
2023-03-01T00:09:06.003Z,1013.28
2023-03-01T00:14:05.897Z,1013.34
2023-03-01T00:19:05.699Z,1013.33
2023-03-01T00:24:05.619Z,1013.29
2023-03-01T00:29:05.573Z,1013.18
2023-03-01T00:34:05.512Z,1013.14
2023-03-01T00:39:05.609Z,1013.15
2023-03-01T00:44:05.387Z,1013.20
2023-03-01T00:49:05.337Z,1013.07
2023-03-01T00:54:05.267Z,1013.05
2023-03-01T00:59:05.222Z,1013.07
2023-03-01T01:04:05.136Z,1012.94
2023-03-01T01:09:05.075Z,1012.85
2023-03-01T01:14:05.006Z,1012.86
2023-03-01T01:19:04.951Z,1012.75
2023-03-01T01:24:04.878Z,1012.79
2023-03-01T01:29:04.819Z,1012.69
2023-03-01T01:34:04.747Z,1012.56
2023-03-01T01:39:04.702Z,1012.51
2023-03-01T01:44:04.625Z,1012.56
2023-03-01T01:49:04.580Z,1012.47
2023-03-01T01:54:04.490Z,1012.38
2023-03-01T01:59:04.450Z,1012.34
2023-03-01T02:04:04.367Z,1012.34
2023-03-01T02:09:04.317Z,1012.25
2023-03-01T02:14:04.240Z,1012.27
2023-03-01T02:19:04.182Z,1012.30
2023-03-01T02:24:04.109Z,1012.35
2023-03-01T02:29:04.061Z,1012.29
2023-03-01T02:34:04.005Z,1012.25
2023-03-01T02:39:03.940Z,1012.24
2023-03-01T02:44:03.860Z,1012.23
2023-03-01T02:49:03.801Z,1012.21
2023-03-01T02:54:03.730Z,1012.27
2023-03-01T02:59:03.694Z,1012.35
2023-03-01T03:04:03.653Z,1012.32
2023-03-01T03:09:03.556Z,1012.24
2023-03-01T03:14:03.493Z,1012.32
2023-03-01T03:19:03.430Z,1012.32
2023-03-01T03:24:03.347Z,1012.26
2023-03-01T03:29:03.316Z,1012.24
2023-03-01T03:34:03.226Z,1012.12
2023-03-01T03:39:03.255Z,1012.06
2023-03-01T03:44:03.123Z,1011.99
2023-03-01T03:49:03.201Z,1011.96
2023-03-01T03:54:02.977Z,1011.95
2023-03-01T03:59:02.911Z,1011.86
2023-03-01T04:04:02.839Z,1011.79
2023-03-01T04:09:02.784Z,1011.86
2023-03-01T04:14:02.718Z,1011.86
2023-03-01T04:19:02.658Z,1011.83
2023-03-01T04:24:02.586Z,1011.78
2023-03-01T04:29:02.537Z,1011.80
2023-03-01T04:34:02.466Z,1011.82
2023-03-01T04:39:02.406Z,1011.84
2023-03-01T04:44:02.333Z,1011.85
2023-03-01T04:49:02.280Z,1011.80
2023-03-01T04:54:02.220Z,1011.80
2023-03-01T04:59:02.170Z,1011.81
2023-03-01T05:04:02.287Z,1011.80
2023-03-01T05:09:02.030Z,1011.83
2023-03-01T05:14:01.970Z,1011.89
2023-03-01T05:19:01.908Z,1011.83
2023-03-01T05:24:01.846Z,1011.85
2023-03-01T05:29:01.777Z,1011.87
2023-03-01T05:34:01.709Z,1011.77
2023-03-01T05:39:01.654Z,1011.80
2023-03-01T05:44:01.583Z,1011.86
2023-03-01T05:49:01.535Z,1011.77
2023-03-01T05:54:01.461Z,1011.84
2023-03-01T05:59:01.414Z,1011.80
2023-03-01T06:04:01.340Z,1011.80
2023-03-01T06:09:01.285Z,1011.90
2023-03-01T06:14:01.223Z,1011.94
2023-03-01T06:19:01.163Z,1012.02
2023-03-01T06:24:01.096Z,1011.97
2023-03-01T06:29:01.034Z,1011.92
2023-03-01T06:34:00.980Z,1011.94
2023-03-01T06:39:00.912Z,1011.88
2023-03-01T06:44:00.852Z,1011.89
2023-03-01T06:49:00.785Z,1011.89
2023-03-01T06:54:01.809Z,1011.84
2023-03-01T06:59:00.654Z,1011.88
2023-03-01T07:04:00.607Z,1011.85
2023-03-01T07:09:00.540Z,1011.89
2023-03-01T07:14:00.469Z,1011.87
2023-03-01T07:19:00.868Z,1011.85
2023-03-01T07:24:00.338Z,1011.84
2023-03-01T07:29:00.268Z,1011.80
2023-03-01T07:34:00.196Z,1011.72
2023-03-01T07:39:00.146Z,1011.73
2023-03-01T07:44:00.108Z,1011.68
2023-03-01T07:49:00.017Z,1011.61
2023-03-01T07:53:59.942Z,1011.57
2023-03-01T07:58:59.897Z,1011.55
2023-03-01T08:03:59.850Z,1011.55
2023-03-01T08:08:59.752Z,1011.53
2023-03-01T08:13:59.704Z,1011.41
2023-03-01T08:18:59.618Z,1011.37
2023-03-01T08:23:59.554Z,1011.31
2023-03-01T08:28:59.487Z,1011.29
2023-03-01T08:33:59.423Z,1011.22
2023-03-01T08:38:59.358Z,1011.15
2023-03-01T08:43:59.301Z,1011.12
2023-03-01T08:48:59.223Z,1011.13
2023-03-01T08:53:59.152Z,1011.03
2023-03-01T09:00:54.526Z,1010.93
2023-03-01T09:05:48.459Z,1011.02
2023-03-01T09:10:48.377Z,1010.95
2023-03-01T09:15:48.313Z,1010.80
2023-03-01T09:20:48.266Z,1010.78
2023-03-01T09:25:48.201Z,1010.73
2023-03-01T09:30:48.154Z,1010.74
2023-03-01T09:35:48.122Z,1010.69
2023-03-01T09:40:47.981Z,1010.65
2023-03-01T09:45:47.978Z,1010.63
2023-03-01T09:50:47.862Z,1010.62
2023-03-01T09:55:47.786Z,1010.54
2023-03-01T10:00:47.710Z,1010.53
2023-03-01T10:05:47.653Z,1010.55
2023-03-01T10:10:47.578Z,1010.54
2023-03-01T10:15:47.646Z,1010.52
2023-03-01T10:20:47.456Z,1010.58
2023-03-01T10:25:47.395Z,1010.52
2023-03-01T10:32:36.639Z,1010.49
2023-03-01T10:37:42.580Z,1010.43
2023-03-01T10:42:36.492Z,1010.29
2023-03-01T10:47:36.434Z,1010.27
2023-03-01T10:52:36.366Z,1010.23
2023-03-01T10:57:36.306Z,1010.28
2023-03-01T11:02:36.320Z,1010.17
2023-03-01T11:07:36.181Z,1010.18
2023-03-01T11:12:36.116Z,1010.14
2023-03-01T11:17:47.926Z,1010.19
2023-03-01T11:22:38.059Z,1010.18
2023-03-01T11:27:37.686Z,1010.23
2023-03-01T11:32:35.980Z,1010.26
2023-03-01T11:37:35.790Z,1010.25
2023-03-01T11:42:35.737Z,1010.23
2023-03-01T11:47:35.846Z,1010.25
2023-03-01T11:52:35.585Z,1010.18
2023-03-01T11:57:43.312Z,1010.05
2023-03-01T12:02:35.507Z,1009.97
2023-03-01T12:07:35.392Z,1009.89
2023-03-01T12:12:35.365Z,1009.86
2023-03-01T12:17:35.258Z,1009.86
2023-03-01T12:22:35.181Z,1009.86
2023-03-01T12:27:35.125Z,1009.86
2023-03-01T12:32:36.401Z,1009.75
2023-03-01T12:37:34.999Z,1009.76
2023-03-01T12:42:34.927Z,1009.55
2023-03-01T12:47:34.875Z,1009.41
2023-03-01T12:52:34.790Z,1009.39
2023-03-01T12:57:34.744Z,1009.35
2023-03-01T13:02:34.678Z,1009.26
2023-03-01T13:07:34.608Z,1009.32
2023-03-01T13:12:34.530Z,1009.27
2023-03-01T13:17:34.500Z,1009.27
2023-03-01T13:22:36.561Z,1009.34
2023-03-01T13:27:34.441Z,1009.34
2023-03-01T13:32:43.543Z,1009.30
2023-03-01T13:37:34.457Z,1009.21
2023-03-01T13:42:34.434Z,1009.20
2023-03-01T13:47:34.377Z,1009.10
2023-03-01T13:52:34.358Z,1009.16
2023-03-01T13:57:34.395Z,1009.13
2023-03-01T14:02:33.873Z,1009.19
2023-03-01T14:07:33.822Z,1009.02
2023-03-01T14:12:33.739Z,1008.96
2023-03-01T14:17:33.687Z,1008.82
2023-03-01T14:22:33.603Z,1008.88
2023-03-01T14:27:33.549Z,1008.84
2023-03-01T14:32:33.623Z,1008.83
2023-03-01T14:37:33.417Z,1008.91
2023-03-01T14:42:33.334Z,1008.83
2023-03-01T14:47:33.289Z,1008.73
2023-03-01T14:52:33.212Z,1008.69
2023-03-01T14:57:33.180Z,1008.68
2023-03-01T15:02:33.080Z,1008.63
2023-03-01T15:07:33.026Z,1008.60
2023-03-01T15:12:32.953Z,1008.46
2023-03-01T15:17:32.893Z,1008.48
2023-03-01T15:22:32.815Z,1008.45
2023-03-01T15:27:32.766Z,1008.31
2023-03-01T15:32:32.754Z,1008.38
2023-03-01T15:37:32.639Z,1008.36
2023-03-01T15:42:32.565Z,1008.31
2023-03-01T15:47:32.504Z,1008.32
2023-03-01T15:52:32.457Z,1008.34
2023-03-01T15:57:32.382Z,1008.35
2023-03-01T16:02:32.338Z,1008.35
2023-03-01T16:07:32.227Z,1008.36
2023-03-01T16:12:32.156Z,1008.33
2023-03-01T16:17:32.097Z,1008.36
2023-03-01T16:22:32.030Z,1008.37
2023-03-01T16:27:31.973Z,1008.39
2023-03-01T16:32:31.976Z,1008.38
2023-03-01T16:37:31.837Z,1008.42
2023-03-01T16:42:31.766Z,1008.40
2023-03-01T16:47:31.707Z,1008.37
2023-03-01T16:52:31.639Z,1008.44
2023-03-01T16:57:31.580Z,1008.42
2023-03-01T17:02:31.505Z,1008.44
2023-03-01T17:07:31.448Z,1008.41
2023-03-01T17:12:31.372Z,1008.48
2023-03-01T17:17:31.317Z,1008.51
2023-03-01T17:22:31.254Z,1008.46
2023-03-01T17:27:31.188Z,1008.57
2023-03-01T17:32:31.278Z,1008.62
2023-03-01T17:37:31.057Z,1008.62
2023-03-01T17:42:30.998Z,1008.66
2023-03-01T17:47:30.930Z,1008.71
2023-03-01T17:52:30.865Z,1008.67
2023-03-01T17:57:30.799Z,1008.59
2023-03-01T18:02:30.782Z,1008.70
2023-03-01T18:07:30.672Z,1008.74
2023-03-01T18:12:31.639Z,1008.72
2023-03-01T18:17:30.531Z,1008.67
2023-03-01T18:22:30.460Z,1008.65
2023-03-01T18:27:30.410Z,1008.65
2023-03-01T18:32:30.389Z,1008.73
2023-03-01T18:37:30.271Z,1008.72
2023-03-01T18:42:30.204Z,1008.75
2023-03-01T18:47:30.148Z,1008.71
2023-03-01T18:52:30.082Z,1008.64
2023-03-01T18:57:30.006Z,1008.65
2023-03-01T19:02:30.017Z,1008.65
2023-03-01T19:07:29.882Z,1008.68
2023-03-01T19:12:29.817Z,1008.65
2023-03-01T19:17:29.998Z,1008.60
2023-03-01T19:22:29.787Z,1008.75
2023-03-01T19:27:29.719Z,1008.69
2023-03-01T19:32:29.660Z,1008.56
2023-03-01T19:37:29.494Z,1008.65
2023-03-01T19:42:29.457Z,1008.54
2023-03-01T19:47:29.366Z,1008.57
2023-03-01T19:52:29.305Z,1008.60
2023-03-01T19:57:29.240Z,1008.56
2023-03-01T20:02:29.478Z,1008.54
2023-03-01T20:07:29.114Z,1008.52
2023-03-01T20:12:29.053Z,1008.54
2023-03-01T20:17:28.989Z,1008.48
2023-03-01T20:22:28.935Z,1008.48
2023-03-01T20:27:28.864Z,1008.52
2023-03-01T20:32:28.824Z,1008.46
2023-03-01T20:37:28.745Z,1008.44
2023-03-01T20:42:28.688Z,1008.50
2023-03-01T20:47:28.614Z,1008.47
2023-03-01T20:52:34.155Z,1008.45
2023-03-01T20:57:28.494Z,1008.47
2023-03-01T21:02:28.428Z,1008.51
2023-03-01T21:07:28.368Z,1008.52
2023-03-01T21:12:28.304Z,1008.46
2023-03-01T21:17:28.243Z,1008.42
2023-03-01T21:22:28.170Z,1008.40
2023-03-01T21:27:28.115Z,1008.35
2023-03-01T21:32:28.117Z,1008.31
2023-03-01T21:37:27.993Z,1008.27
2023-03-01T21:42:27.924Z,1008.26
2023-03-01T21:47:27.869Z,1008.22
2023-03-01T21:52:27.796Z,1008.18
2023-03-01T21:57:27.739Z,1008.15
2023-03-01T22:02:27.665Z,1008.08
2023-03-01T22:07:27.632Z,1008.06
2023-03-01T22:12:27.560Z,1008.12
2023-03-01T22:17:27.485Z,1008.07
2023-03-01T22:22:27.417Z,1008.08
2023-03-01T22:27:27.352Z,1008.03
2023-03-01T22:32:27.353Z,1008.03
2023-03-01T22:37:27.238Z,1008.02
2023-03-01T22:42:27.164Z,1007.90
2023-03-01T22:47:27.120Z,1007.95
2023-03-01T22:52:27.033Z,1007.87
2023-03-01T22:57:26.991Z,1007.98
2023-03-01T23:02:27.067Z,1007.94
2023-03-01T23:07:26.860Z,1007.85
2023-03-01T23:14:22.230Z,1007.82
2023-03-01T23:19:16.144Z,1007.78
2023-03-01T23:24:16.134Z,1007.80
2023-03-01T23:29:16.021Z,1007.77
2023-03-01T23:34:15.951Z,1007.68
2023-03-01T23:39:15.889Z,1007.73
2023-03-01T23:44:15.821Z,1007.67
2023-03-01T23:49:15.766Z,1007.73
2023-03-01T23:54:15.693Z,1007.76
2023-03-01T23:59:15.637Z,1007.87
